sensor_id;sensor_type;location;lat;lon;timestamp;temperature;humidity
71142;DHT22;58808;59.366;17.970;2022-07-23T00:01:30;18.50;99.90
71142;DHT22;58808;59.366;17.970;2022-07-23T00:03:56;18.50;99.90
71142;DHT22;58808;59.366;17.970;2022-07-23T00:06:22;18.40;99.90
71142;DHT22;58808;59.366;17.970;2022-07-23T00:08:48;18.40;99.90
71142;DHT22;58808;59.366;17.970;2022-07-23T00:11:14;18.40;99.90
71142;DHT22;58808;59.366;17.970;2022-07-23T00:13:40;18.30;99.90
71142;DHT22;58808;59.366;17.970;2022-07-23T00:16:06;18.20;99.90
71142;DHT22;58808;59.366;17.970;2022-07-23T00:18:32;18.20;99.90
71142;DHT22;58808;59.366;17.970;2022-07-23T00:20:57;18.10;99.90
71142;DHT22;58808;59.366;17.970;2022-07-23T00:23:23;18.00;99.90
71142;DHT22;58808;59.366;17.970;2022-07-23T00:25:52;18.00;99.90
71142;DHT22;58808;59.366;17.970;2022-07-23T00:28:18;18.00;99.90
71142;DHT22;58808;59.366;17.970;2022-07-23T00:30:44;18.00;99.90
71142;DHT22;58808;59.366;17.970;2022-07-23T00:33:10;17.90;99.90
71142;DHT22;58808;59.366;17.970;2022-07-23T00:35:40;17.90;99.90
71142;DHT22;58808;59.366;17.970;2022-07-23T00:38:07;18.00;99.90
71142;DHT22;58808;59.366;17.970;2022-07-23T00:40:37;18.00;99.90
71142;DHT22;58808;59.366;17.970;2022-07-23T00:43:03;17.90;99.90
71142;DHT22;58808;59.366;17.970;2022-07-23T00:45:30;17.90;99.90
71142;DHT22;58808;59.366;17.970;2022-07-23T00:47:56;17.80;99.90
71142;DHT22;58808;59.366;17.970;2022-07-23T00:50:22;17.70;99.90
71142;DHT22;58808;59.366;17.970;2022-07-23T00:52:47;17.70;99.90
71142;DHT22;58808;59.366;17.970;2022-07-23T00:55:13;17.60;99.90
71142;DHT22;58808;59.366;17.970;2022-07-23T00:57:41;17.60;99.90
71142;DHT22;58808;59.366;17.970;2022-07-23T01:00:10;17.50;99.90
71142;DHT22;58808;59.366;17.970;2022-07-23T01:02:39;17.40;99.90
71142;DHT22;58808;59.366;17.970;2022-07-23T01:05:06;17.50;99.90
71142;DHT22;58808;59.366;17.970;2022-07-23T01:07:33;17.40;99.90
71142;DHT22;58808;59.366;17.970;2022-07-23T01:09:59;17.30;99.90
71142;DHT22;58808;59.366;17.970;2022-07-23T01:12:25;17.20;99.90
71142;DHT22;58808;59.366;17.970;2022-07-23T01:15:02;17.10;99.90
71142;DHT22;58808;59.366;17.970;2022-07-23T01:17:28;16.90;99.90
71142;DHT22;58808;59.366;17.970;2022-07-23T01:19:53;17.00;99.90
71142;DHT22;58808;59.366;17.970;2022-07-23T01:22:20;17.00;99.90
71142;DHT22;58808;59.366;17.970;2022-07-23T01:24:46;17.00;99.90
71142;DHT22;58808;59.366;17.970;2022-07-23T01:27:12;17.00;99.90
71142;DHT22;58808;59.366;17.970;2022-07-23T01:29:38;17.00;99.90
71142;DHT22;58808;59.366;17.970;2022-07-23T01:32:04;17.00;99.90
71142;DHT22;58808;59.366;17.970;2022-07-23T01:34:42;17.00;99.90
71142;DHT22;58808;59.366;17.970;2022-07-23T01:37:08;17.00;99.90
71142;DHT22;58808;59.366;17.970;2022-07-23T01:39:34;17.10;99.90
71142;DHT22;58808;59.366;17.970;2022-07-23T01:41:59;17.20;99.90
71142;DHT22;58808;59.366;17.970;2022-07-23T01:44:25;17.10;99.90
71142;DHT22;58808;59.366;17.970;2022-07-23T01:46:50;16.90;99.90
71142;DHT22;58808;59.366;17.970;2022-07-23T01:49:16;16.80;99.90
71142;DHT22;58808;59.366;17.970;2022-07-23T01:51:44;16.60;99.90
71142;DHT22;58808;59.366;17.970;2022-07-23T01:54:30;16.60;99.90
71142;DHT22;58808;59.366;17.970;2022-07-23T01:56:57;16.50;99.90
71142;DHT22;58808;59.366;17.970;2022-07-23T01:59:26;16.50;99.90
71142;DHT22;58808;59.366;17.970;2022-07-23T02:01:52;16.60;99.90
71142;DHT22;58808;59.366;17.970;2022-07-23T02:04:22;16.50;99.90
71142;DHT22;58808;59.366;17.970;2022-07-23T02:06:48;16.60;99.90
71142;DHT22;58808;59.366;17.970;2022-07-23T02:09:14;16.60;99.90
71142;DHT22;58808;59.366;17.970;2022-07-23T02:11:40;16.50;99.90
71142;DHT22;58808;59.366;17.970;2022-07-23T02:14:07;16.60;99.90
71142;DHT22;58808;59.366;17.970;2022-07-23T02:16:35;16.50;99.90
71142;DHT22;58808;59.366;17.970;2022-07-23T02:19:00;16.60;99.90
71142;DHT22;58808;59.366;17.970;2022-07-23T02:21:26;16.50;99.90
71142;DHT22;58808;59.366;17.970;2022-07-23T02:23:52;16.40;99.90
71142;DHT22;58808;59.366;17.970;2022-07-23T02:26:17;16.30;99.90
71142;DHT22;58808;59.366;17.970;2022-07-23T02:28:43;16.30;99.90
71142;DHT22;58808;59.366;17.970;2022-07-23T02:31:09;16.20;99.90
71142;DHT22;58808;59.366;17.970;2022-07-23T02:33:34;16.10;99.90
71142;DHT22;58808;59.366;17.970;2022-07-23T02:36:00;16.10;99.90
71142;DHT22;58808;59.366;17.970;2022-07-23T02:38:25;16.00;99.90
71142;DHT22;58808;59.366;17.970;2022-07-23T02:40:51;15.90;99.90
71142;DHT22;58808;59.366;17.970;2022-07-23T02:43:17;15.90;99.90
71142;DHT22;58808;59.366;17.970;2022-07-23T02:45:42;16.00;99.90
71142;DHT22;58808;59.366;17.970;2022-07-23T02:48:11;16.00;99.90
71142;DHT22;58808;59.366;17.970;2022-07-23T02:50:39;16.10;99.90
71142;DHT22;58808;59.366;17.970;2022-07-23T02:53:05;16.00;99.90
71142;DHT22;58808;59.366;17.970;2022-07-23T02:55:31;16.00;99.90
71142;DHT22;58808;59.366;17.970;2022-07-23T02:57:57;16.00;99.90
71142;DHT22;58808;59.366;17.970;2022-07-23T03:00:25;16.10;99.90
71142;DHT22;58808;59.366;17.970;2022-07-23T03:02:51;16.10;99.90
71142;DHT22;58808;59.366;17.970;2022-07-23T03:05:16;16.10;99.90
71142;DHT22;58808;59.366;17.970;2022-07-23T03:07:42;16.20;99.90
71142;DHT22;58808;59.366;17.970;2022-07-23T03:10:08;16.10;99.90
71142;DHT22;58808;59.366;17.970;2022-07-23T03:12:34;16.10;99.90
71142;DHT22;58808;59.366;17.970;2022-07-23T03:14:59;16.00;99.90
71142;DHT22;58808;59.366;17.970;2022-07-23T03:17:25;16.10;99.90
71142;DHT22;58808;59.366;17.970;2022-07-23T03:19:50;16.00;99.90
71142;DHT22;58808;59.366;17.970;2022-07-23T03:22:16;16.00;99.90
71142;DHT22;58808;59.366;17.970;2022-07-23T03:24:42;16.10;99.90
71142;DHT22;58808;59.366;17.970;2022-07-23T03:27:24;16.10;99.90
71142;DHT22;58808;59.366;17.970;2022-07-23T03:29:55;16.00;99.90
71142;DHT22;58808;59.366;17.970;2022-07-23T03:32:21;16.00;99.90
71142;DHT22;58808;59.366;17.970;2022-07-23T03:34:48;16.00;99.90
71142;DHT22;58808;59.366;17.970;2022-07-23T03:37:14;16.20;99.90
71142;DHT22;58808;59.366;17.970;2022-07-23T03:39:42;16.20;99.90
71142;DHT22;58808;59.366;17.970;2022-07-23T03:42:08;16.10;99.90
71142;DHT22;58808;59.366;17.970;2022-07-23T03:44:33;16.20;99.90
71142;DHT22;58808;59.366;17.970;2022-07-23T03:46:59;16.20;99.90
71142;DHT22;58808;59.366;17.970;2022-07-23T03:49:25;16.20;99.90
71142;DHT22;58808;59.366;17.970;2022-07-23T03:51:51;16.20;99.90
71142;DHT22;58808;59.366;17.970;2022-07-23T03:54:16;16.20;99.90
71142;DHT22;58808;59.366;17.970;2022-07-23T03:56:42;16.30;99.90
71142;DHT22;58808;59.366;17.970;2022-07-23T03:59:08;16.30;99.90
71142;DHT22;58808;59.366;17.970;2022-07-23T04:01:34;16.30;99.90
71142;DHT22;58808;59.366;17.970;2022-07-23T04:04:02;16.30;99.90
71142;DHT22;58808;59.366;17.970;2022-07-23T04:06:28;16.20;99.90
71142;DHT22;58808;59.366;17.970;2022-07-23T04:08:54;16.30;99.90
71142;DHT22;58808;59.366;17.970;2022-07-23T04:11:20;16.30;99.90
71142;DHT22;58808;59.366;17.970;2022-07-23T04:13:46;16.50;99.90
71142;DHT22;58808;59.366;17.970;2022-07-23T04:16:11;16.50;99.90
71142;DHT22;58808;59.366;17.970;2022-07-23T04:18:40;16.50;99.90
71142;DHT22;58808;59.366;17.970;2022-07-23T04:21:06;16.30;99.90
71142;DHT22;58808;59.366;17.970;2022-07-23T04:23:31;16.40;99.90
71142;DHT22;58808;59.366;17.970;2022-07-23T04:25:57;16.40;99.90
71142;DHT22;58808;59.366;17.970;2022-07-23T04:28:22;16.50;99.90
71142;DHT22;58808;59.366;17.970;2022-07-23T04:30:48;16.50;99.90
71142;DHT22;58808;59.366;17.970;2022-07-23T04:33:14;16.50;99.90
71142;DHT22;58808;59.366;17.970;2022-07-23T04:35:39;16.50;99.90
71142;DHT22;58808;59.366;17.970;2022-07-23T04:38:05;16.50;99.90
71142;DHT22;58808;59.366;17.970;2022-07-23T04:40:31;16.50;99.90
71142;DHT22;58808;59.366;17.970;2022-07-23T04:42:57;16.40;99.90
71142;DHT22;58808;59.366;17.970;2022-07-23T04:45:23;16.40;99.90
71142;DHT22;58808;59.366;17.970;2022-07-23T04:47:51;16.40;99.90
71142;DHT22;58808;59.366;17.970;2022-07-23T04:50:17;16.40;99.90
71142;DHT22;58808;59.366;17.970;2022-07-23T04:52:49;16.40;99.90
71142;DHT22;58808;59.366;17.970;2022-07-23T04:55:15;16.40;99.90
71142;DHT22;58808;59.366;17.970;2022-07-23T04:57:44;16.50;99.90
71142;DHT22;58808;59.366;17.970;2022-07-23T05:00:10;16.50;99.90
71142;DHT22;58808;59.366;17.970;2022-07-23T05:02:39;16.40;99.90
71142;DHT22;58808;59.366;17.970;2022-07-23T05:05:07;16.30;99.90
71142;DHT22;58808;59.366;17.970;2022-07-23T05:07:33;16.30;99.90
71142;DHT22;58808;59.366;17.970;2022-07-23T05:09:58;16.20;99.90
71142;DHT22;58808;59.366;17.970;2022-07-23T05:12:24;16.20;99.90
71142;DHT22;58808;59.366;17.970;2022-07-23T05:14:49;16.20;99.90
71142;DHT22;58808;59.366;17.970;2022-07-23T05:17:15;16.30;99.90
71142;DHT22;58808;59.366;17.970;2022-07-23T05:19:41;16.30;99.90
71142;DHT22;58808;59.366;17.970;2022-07-23T05:22:06;16.30;99.90
71142;DHT22;58808;59.366;17.970;2022-07-23T05:24:32;16.30;99.90
71142;DHT22;58808;59.366;17.970;2022-07-23T05:26:57;16.30;99.90
71142;DHT22;58808;59.366;17.970;2022-07-23T05:29:23;16.30;99.90
71142;DHT22;58808;59.366;17.970;2022-07-23T05:31:49;16.30;99.90
71142;DHT22;58808;59.366;17.970;2022-07-23T05:34:15;16.30;99.90
71142;DHT22;58808;59.366;17.970;2022-07-23T05:36:48;16.40;99.90
71142;DHT22;58808;59.366;17.970;2022-07-23T05:39:17;16.40;99.90
71142;DHT22;58808;59.366;17.970;2022-07-23T05:41:43;16.50;99.90
71142;DHT22;58808;59.366;17.970;2022-07-23T05:44:08;16.50;99.90
71142;DHT22;58808;59.366;17.970;2022-07-23T05:46:34;16.60;99.90
71142;DHT22;58808;59.366;17.970;2022-07-23T05:48:59;16.50;99.90
71142;DHT22;58808;59.366;17.970;2022-07-23T05:51:25;16.60;99.90
71142;DHT22;58808;59.366;17.970;2022-07-23T05:53:51;16.60;99.90
71142;DHT22;58808;59.366;17.970;2022-07-23T05:56:18;16.60;99.90
71142;DHT22;58808;59.366;17.970;2022-07-23T05:58:43;16.60;99.90
71142;DHT22;58808;59.366;17.970;2022-07-23T06:01:10;16.60;99.90
71142;DHT22;58808;59.366;17.970;2022-07-23T06:03:37;16.50;99.90
71142;DHT22;58808;59.366;17.970;2022-07-23T06:06:06;16.50;99.90
71142;DHT22;58808;59.366;17.970;2022-07-23T06:08:32;16.50;99.90
71142;DHT22;58808;59.366;17.970;2022-07-23T06:10:58;16.60;99.90
71142;DHT22;58808;59.366;17.970;2022-07-23T06:13:23;16.70;99.90
71142;DHT22;58808;59.366;17.970;2022-07-23T06:15:49;16.70;99.90
71142;DHT22;58808;59.366;17.970;2022-07-23T06:18:14;16.70;99.90
71142;DHT22;58808;59.366;17.970;2022-07-23T06:20:40;16.80;99.90
71142;DHT22;58808;59.366;17.970;2022-07-23T06:23:06;16.90;99.90
71142;DHT22;58808;59.366;17.970;2022-07-23T06:25:34;16.80;99.90
71142;DHT22;58808;59.366;17.970;2022-07-23T06:28:00;16.90;99.90
71142;DHT22;58808;59.366;17.970;2022-07-23T06:30:26;17.10;99.90
71142;DHT22;58808;59.366;17.970;2022-07-23T06:32:51;17.00;99.90
71142;DHT22;58808;59.366;17.970;2022-07-23T06:35:17;17.10;99.90
71142;DHT22;58808;59.366;17.970;2022-07-23T06:37:43;17.10;99.90
71142;DHT22;58808;59.366;17.970;2022-07-23T06:40:10;17.30;99.90
71142;DHT22;58808;59.366;17.970;2022-07-23T06:42:36;17.30;99.90
71142;DHT22;58808;59.366;17.970;2022-07-23T06:45:06;17.30;99.90
71142;DHT22;58808;59.366;17.970;2022-07-23T06:47:35;17.40;99.90
71142;DHT22;58808;59.366;17.970;2022-07-23T06:50:01;17.40;99.90
71142;DHT22;58808;59.366;17.970;2022-07-23T06:52:26;17.30;99.90
71142;DHT22;58808;59.366;17.970;2022-07-23T06:54:55;17.40;99.90
71142;DHT22;58808;59.366;17.970;2022-07-23T06:57:21;17.40;99.90
71142;DHT22;58808;59.366;17.970;2022-07-23T06:59:50;17.50;99.90
71142;DHT22;58808;59.366;17.970;2022-07-23T07:02:18;17.60;99.90
71142;DHT22;58808;59.366;17.970;2022-07-23T07:05:10;17.80;99.90
71142;DHT22;58808;59.366;17.970;2022-07-23T07:07:36;17.70;99.90
71142;DHT22;58808;59.366;17.970;2022-07-23T07:10:10;17.70;99.90
71142;DHT22;58808;59.366;17.970;2022-07-23T07:12:36;17.60;99.90
71142;DHT22;58808;59.366;17.970;2022-07-23T07:15:02;17.70;99.90
71142;DHT22;58808;59.366;17.970;2022-07-23T07:17:44;17.80;99.90
71142;DHT22;58808;59.366;17.970;2022-07-23T07:20:10;17.90;99.90
71142;DHT22;58808;59.366;17.970;2022-07-23T07:22:36;18.00;99.90
71142;DHT22;58808;59.366;17.970;2022-07-23T07:25:05;18.00;99.90
71142;DHT22;58808;59.366;17.970;2022-07-23T07:27:31;18.10;99.90
71142;DHT22;58808;59.366;17.970;2022-07-23T07:29:59;18.30;99.90
71142;DHT22;58808;59.366;17.970;2022-07-23T07:32:25;18.50;99.90
71142;DHT22;58808;59.366;17.970;2022-07-23T07:34:51;18.40;99.90
71142;DHT22;58808;59.366;17.970;2022-07-23T07:37:19;18.40;99.90
71142;DHT22;58808;59.366;17.970;2022-07-23T07:39:44;18.30;99.90
71142;DHT22;58808;59.366;17.970;2022-07-23T07:42:10;18.40;99.90
71142;DHT22;58808;59.366;17.970;2022-07-23T07:44:36;18.60;99.90
71142;DHT22;58808;59.366;17.970;2022-07-23T07:47:01;18.80;99.90
71142;DHT22;58808;59.366;17.970;2022-07-23T07:49:30;18.80;99.90
71142;DHT22;58808;59.366;17.970;2022-07-23T07:51:56;18.80;99.90
71142;DHT22;58808;59.366;17.970;2022-07-23T07:54:21;18.80;99.90
71142;DHT22;58808;59.366;17.970;2022-07-23T07:56:47;18.90;99.90
71142;DHT22;58808;59.366;17.970;2022-07-23T07:59:13;18.80;99.90
71142;DHT22;58808;59.366;17.970;2022-07-23T08:01:40;18.80;99.90
71142;DHT22;58808;59.366;17.970;2022-07-23T08:04:05;18.70;99.90
71142;DHT22;58808;59.366;17.970;2022-07-23T08:06:31;18.60;99.90
71142;DHT22;58808;59.366;17.970;2022-07-23T08:08:57;18.50;99.90
71142;DHT22;58808;59.366;17.970;2022-07-23T08:11:22;18.30;99.90
71142;DHT22;58808;59.366;17.970;2022-07-23T08:13:48;18.20;99.90
71142;DHT22;58808;59.366;17.970;2022-07-23T08:16:14;18.30;99.90
71142;DHT22;58808;59.366;17.970;2022-07-23T08:18:39;18.30;99.90
71142;DHT22;58808;59.366;17.970;2022-07-23T08:21:05;18.20;99.90
71142;DHT22;58808;59.366;17.970;2022-07-23T08:23:31;18.10;99.90
71142;DHT22;58808;59.366;17.970;2022-07-23T08:25:57;18.10;99.90
71142;DHT22;58808;59.366;17.970;2022-07-23T08:28:26;18.00;99.90
71142;DHT22;58808;59.366;17.970;2022-07-23T08:30:54;18.10;99.90
71142;DHT22;58808;59.366;17.970;2022-07-23T08:33:20;18.10;99.90
71142;DHT22;58808;59.366;17.970;2022-07-23T08:35:50;18.00;99.90
71142;DHT22;58808;59.366;17.970;2022-07-23T08:38:22;17.90;99.90
71142;DHT22;58808;59.366;17.970;2022-07-23T08:40:50;17.90;99.90
71142;DHT22;58808;59.366;17.970;2022-07-23T08:43:21;17.80;99.90
71142;DHT22;58808;59.366;17.970;2022-07-23T08:45:49;17.90;99.90
71142;DHT22;58808;59.366;17.970;2022-07-23T08:48:24;17.70;99.90
71142;DHT22;58808;59.366;17.970;2022-07-23T08:50:55;17.80;99.90
71142;DHT22;58808;59.366;17.970;2022-07-23T08:53:24;17.80;99.90
71142;DHT22;58808;59.366;17.970;2022-07-23T08:56:00;17.80;99.90
71142;DHT22;58808;59.366;17.970;2022-07-23T08:58:27;17.90;99.90
71142;DHT22;58808;59.366;17.970;2022-07-23T09:00:53;18.00;99.90
71142;DHT22;58808;59.366;17.970;2022-07-23T09:03:24;18.00;99.90
71142;DHT22;58808;59.366;17.970;2022-07-23T09:05:51;18.00;99.90
71142;DHT22;58808;59.366;17.970;2022-07-23T09:08:21;18.10;99.90
71142;DHT22;58808;59.366;17.970;2022-07-23T09:10:55;18.00;99.90
71142;DHT22;58808;59.366;17.970;2022-07-23T09:16:34;18.10;99.90
71142;DHT22;58808;59.366;17.970;2022-07-23T09:18:58;18.00;99.90
71142;DHT22;58808;59.366;17.970;2022-07-23T09:21:31;18.10;99.90
71142;DHT22;58808;59.366;17.970;2022-07-23T09:29:05;18.20;99.90
71142;DHT22;58808;59.366;17.970;2022-07-23T09:32:00;18.10;99.90
71142;DHT22;58808;59.366;17.970;2022-07-23T09:34:36;18.10;99.90
71142;DHT22;58808;59.366;17.970;2022-07-23T09:37:18;18.10;99.90
71142;DHT22;58808;59.366;17.970;2022-07-23T09:39:45;18.30;99.90
71142;DHT22;58808;59.366;17.970;2022-07-23T09:42:18;18.20;99.90
71142;DHT22;58808;59.366;17.970;2022-07-23T09:44:55;18.10;99.90
71142;DHT22;58808;59.366;17.970;2022-07-23T09:47:30;18.00;99.90
71142;DHT22;58808;59.366;17.970;2022-07-23T09:50:04;17.90;99.90
71142;DHT22;58808;59.366;17.970;2022-07-23T09:52:34;17.90;99.90
71142;DHT22;58808;59.366;17.970;2022-07-23T09:55:04;17.90;99.90
71142;DHT22;58808;59.366;17.970;2022-07-23T09:57:32;17.90;99.90
71142;DHT22;58808;59.366;17.970;2022-07-23T10:00:03;18.00;99.90
71142;DHT22;58808;59.366;17.970;2022-07-23T10:02:39;18.00;99.90
71142;DHT22;58808;59.366;17.970;2022-07-23T10:05:06;18.00;99.90
71142;DHT22;58808;59.366;17.970;2022-07-23T10:07:34;18.00;99.90
71142;DHT22;58808;59.366;17.970;2022-07-23T10:10:01;18.10;99.90
71142;DHT22;58808;59.366;17.970;2022-07-23T10:12:27;18.20;99.90
71142;DHT22;58808;59.366;17.970;2022-07-23T10:15:03;18.20;99.90
71142;DHT22;58808;59.366;17.970;2022-07-23T10:17:30;18.20;99.90
71142;DHT22;58808;59.366;17.970;2022-07-23T10:19:55;18.10;99.90
71142;DHT22;58808;59.366;17.970;2022-07-23T10:22:33;18.10;99.90
71142;DHT22;58808;59.366;17.970;2022-07-23T10:37:01;17.80;99.90
71142;DHT22;58808;59.366;17.970;2022-07-23T10:39:34;17.70;99.90
71142;DHT22;58808;59.366;17.970;2022-07-23T10:42:15;17.60;99.90
71142;DHT22;58808;59.366;17.970;2022-07-23T10:44:46;17.60;99.90
71142;DHT22;58808;59.366;17.970;2022-07-23T10:47:21;17.70;99.90
71142;DHT22;58808;59.366;17.970;2022-07-23T10:50:22;17.80;99.90
71142;DHT22;58808;59.366;17.970;2022-07-23T10:53:17;17.90;99.90
71142;DHT22;58808;59.366;17.970;2022-07-23T10:55:50;17.90;99.90
71142;DHT22;58808;59.366;17.970;2022-07-23T10:59:06;17.80;99.90
71142;DHT22;58808;59.366;17.970;2022-07-23T11:01:36;17.70;99.90
71142;DHT22;58808;59.366;17.970;2022-07-23T11:04:03;17.80;99.90
71142;DHT22;58808;59.366;17.970;2022-07-23T11:09:43;17.70;99.90
71142;DHT22;58808;59.366;17.970;2022-07-23T11:15:09;17.60;99.90
71142;DHT22;58808;59.366;17.970;2022-07-23T11:20:19;17.40;99.90
71142;DHT22;58808;59.366;17.970;2022-07-23T11:22:46;17.40;99.90
71142;DHT22;58808;59.366;17.970;2022-07-23T11:25:35;17.40;99.90
71142;DHT22;58808;59.366;17.970;2022-07-23T11:28:18;17.40;99.90
71142;DHT22;58808;59.366;17.970;2022-07-23T11:30:46;17.30;99.90
71142;DHT22;58808;59.366;17.970;2022-07-23T11:35:44;17.20;99.90
71142;DHT22;58808;59.366;17.970;2022-07-23T11:38:21;17.10;99.90
71142;DHT22;58808;59.366;17.970;2022-07-23T11:40:52;17.20;99.90
71142;DHT22;58808;59.366;17.970;2022-07-23T11:43:19;17.20;99.90
71142;DHT22;58808;59.366;17.970;2022-07-23T11:46:03;17.10;99.90
71142;DHT22;58808;59.366;17.970;2022-07-23T11:48:30;17.20;99.90
71142;DHT22;58808;59.366;17.970;2022-07-23T11:50:57;17.30;99.90
71142;DHT22;58808;59.366;17.970;2022-07-23T11:53:24;17.30;99.90
71142;DHT22;58808;59.366;17.970;2022-07-23T11:55:51;17.40;99.90
71142;DHT22;58808;59.366;17.970;2022-07-23T11:58:17;17.60;99.90
71142;DHT22;58808;59.366;17.970;2022-07-23T12:00:48;17.70;99.90
71142;DHT22;58808;59.366;17.970;2022-07-23T12:03:16;17.80;99.90
71142;DHT22;58808;59.366;17.970;2022-07-23T12:05:44;17.60;99.90
71142;DHT22;58808;59.366;17.970;2022-07-23T12:08:10;17.70;99.90
71142;DHT22;58808;59.366;17.970;2022-07-23T12:10:41;17.60;99.90
71142;DHT22;58808;59.366;17.970;2022-07-23T12:13:33;17.50;99.90
71142;DHT22;58808;59.366;17.970;2022-07-23T12:15:59;17.40;99.90
71142;DHT22;58808;59.366;17.970;2022-07-23T12:18:27;17.30;99.90
71142;DHT22;58808;59.366;17.970;2022-07-23T12:20:56;17.30;99.90
71142;DHT22;58808;59.366;17.970;2022-07-23T12:23:23;17.30;99.90
71142;DHT22;58808;59.366;17.970;2022-07-23T12:25:51;17.40;99.90
71142;DHT22;58808;59.366;17.970;2022-07-23T12:28:21;17.40;99.90
71142;DHT22;58808;59.366;17.970;2022-07-23T12:30:49;17.40;99.90
71142;DHT22;58808;59.366;17.970;2022-07-23T12:33:23;17.60;99.90
71142;DHT22;58808;59.366;17.970;2022-07-23T12:35:49;17.70;99.90
71142;DHT22;58808;59.366;17.970;2022-07-23T12:38:17;17.70;99.90
71142;DHT22;58808;59.366;17.970;2022-07-23T12:41:01;17.80;99.90
71142;DHT22;58808;59.366;17.970;2022-07-23T12:43:32;17.80;99.90
71142;DHT22;58808;59.366;17.970;2022-07-23T12:51:17;17.80;99.90
71142;DHT22;58808;59.366;17.970;2022-07-23T12:54:04;17.80;99.90
71142;DHT22;58808;59.366;17.970;2022-07-23T12:56:32;17.70;99.90
71142;DHT22;58808;59.366;17.970;2022-07-23T12:59:05;17.80;99.90
71142;DHT22;58808;59.366;17.970;2022-07-23T13:01:34;17.80;99.90
71142;DHT22;58808;59.366;17.970;2022-07-23T13:04:09;17.90;99.90
71142;DHT22;58808;59.366;17.970;2022-07-23T13:09:07;17.90;99.90
71142;DHT22;58808;59.366;17.970;2022-07-23T13:11:33;17.90;99.90
71142;DHT22;58808;59.366;17.970;2022-07-23T13:14:00;18.00;99.90
71142;DHT22;58808;59.366;17.970;2022-07-23T13:16:29;18.10;99.90
71142;DHT22;58808;59.366;17.970;2022-07-23T13:18:55;18.00;99.90
71142;DHT22;58808;59.366;17.970;2022-07-23T13:21:27;18.10;99.90
71142;DHT22;58808;59.366;17.970;2022-07-23T13:24:18;18.20;99.90
71142;DHT22;58808;59.366;17.970;2022-07-23T13:26:44;18.30;99.90
71142;DHT22;58808;59.366;17.970;2022-07-23T13:29:11;18.40;99.90
71142;DHT22;58808;59.366;17.970;2022-07-23T13:31:38;18.40;99.90
71142;DHT22;58808;59.366;17.970;2022-07-23T13:34:04;18.30;99.90
71142;DHT22;58808;59.366;17.970;2022-07-23T13:36:29;18.10;99.90
71142;DHT22;58808;59.366;17.970;2022-07-23T13:38:55;18.20;99.90
71142;DHT22;58808;59.366;17.970;2022-07-23T13:41:21;18.30;99.90
71142;DHT22;58808;59.366;17.970;2022-07-23T13:43:47;18.50;99.90
71142;DHT22;58808;59.366;17.970;2022-07-23T13:46:12;18.60;99.90
71142;DHT22;58808;59.366;17.970;2022-07-23T13:48:38;18.70;99.90
71142;DHT22;58808;59.366;17.970;2022-07-23T13:51:04;18.80;99.90
71142;DHT22;58808;59.366;17.970;2022-07-23T13:53:29;18.80;99.90
71142;DHT22;58808;59.366;17.970;2022-07-23T13:55:55;18.90;99.90
71142;DHT22;58808;59.366;17.970;2022-07-23T13:58:21;18.90;99.90
71142;DHT22;58808;59.366;17.970;2022-07-23T14:00:50;18.80;99.90
71142;DHT22;58808;59.366;17.970;2022-07-23T14:03:18;18.80;99.90
71142;DHT22;58808;59.366;17.970;2022-07-23T14:05:44;18.70;99.90
71142;DHT22;58808;59.366;17.970;2022-07-23T14:08:10;18.60;99.90
71142;DHT22;58808;59.366;17.970;2022-07-23T14:10:35;18.60;99.90
71142;DHT22;58808;59.366;17.970;2022-07-23T14:13:01;18.50;99.90
71142;DHT22;58808;59.366;17.970;2022-07-23T14:15:30;18.50;99.90
71142;DHT22;58808;59.366;17.970;2022-07-23T14:17:56;18.50;99.90
71142;DHT22;58808;59.366;17.970;2022-07-23T14:20:25;18.40;99.90
71142;DHT22;58808;59.366;17.970;2022-07-23T14:22:52;18.40;99.90
71142;DHT22;58808;59.366;17.970;2022-07-23T14:25:18;18.30;99.90
71142;DHT22;58808;59.366;17.970;2022-07-23T14:27:44;18.40;99.90
71142;DHT22;58808;59.366;17.970;2022-07-23T14:30:11;18.30;99.90
71142;DHT22;58808;59.366;17.970;2022-07-23T14:32:37;18.20;99.90
71142;DHT22;58808;59.366;17.970;2022-07-23T14:35:04;18.20;99.90
71142;DHT22;58808;59.366;17.970;2022-07-23T14:37:34;18.20;99.90
71142;DHT22;58808;59.366;17.970;2022-07-23T14:40:00;18.20;99.90
71142;DHT22;58808;59.366;17.970;2022-07-23T14:42:26;18.20;99.90
71142;DHT22;58808;59.366;17.970;2022-07-23T14:44:52;18.20;99.90
71142;DHT22;58808;59.366;17.970;2022-07-23T14:47:17;18.00;99.90
71142;DHT22;58808;59.366;17.970;2022-07-23T14:49:43;18.10;99.90
71142;DHT22;58808;59.366;17.970;2022-07-23T14:52:09;18.10;99.90
71142;DHT22;58808;59.366;17.970;2022-07-23T14:54:38;18.10;99.90
71142;DHT22;58808;59.366;17.970;2022-07-23T14:57:04;18.10;99.90
71142;DHT22;58808;59.366;17.970;2022-07-23T14:59:32;18.00;99.90
71142;DHT22;58808;59.366;17.970;2022-07-23T15:02:08;18.00;99.90
71142;DHT22;58808;59.366;17.970;2022-07-23T15:04:37;17.90;99.90
71142;DHT22;58808;59.366;17.970;2022-07-23T15:07:03;17.90;99.90
71142;DHT22;58808;59.366;17.970;2022-07-23T15:09:29;18.00;99.90
71142;DHT22;58808;59.366;17.970;2022-07-23T15:11:54;18.10;99.90
71142;DHT22;58808;59.366;17.970;2022-07-23T15:14:20;18.10;99.90
71142;DHT22;58808;59.366;17.970;2022-07-23T15:16:48;18.10;99.90
71142;DHT22;58808;59.366;17.970;2022-07-23T15:19:13;18.00;99.90
71142;DHT22;58808;59.366;17.970;2022-07-23T15:21:39;18.00;99.90
71142;DHT22;58808;59.366;17.970;2022-07-23T15:24:11;17.90;99.90
71142;DHT22;58808;59.366;17.970;2022-07-23T15:26:37;17.90;99.90
71142;DHT22;58808;59.366;17.970;2022-07-23T15:29:03;18.00;99.90
71142;DHT22;58808;59.366;17.970;2022-07-23T15:31:36;18.10;99.90
71142;DHT22;58808;59.366;17.970;2022-07-23T15:34:02;18.10;99.90
71142;DHT22;58808;59.366;17.970;2022-07-23T15:36:28;18.00;99.90
71142;DHT22;58808;59.366;17.970;2022-07-23T15:38:53;18.00;99.90
71142;DHT22;58808;59.366;17.970;2022-07-23T15:41:22;18.10;99.90
71142;DHT22;58808;59.366;17.970;2022-07-23T15:43:50;18.10;99.90
71142;DHT22;58808;59.366;17.970;2022-07-23T15:46:17;18.10;99.90
71142;DHT22;58808;59.366;17.970;2022-07-23T15:48:44;18.10;99.90
71142;DHT22;58808;59.366;17.970;2022-07-23T15:51:10;18.20;99.90
71142;DHT22;58808;59.366;17.970;2022-07-23T15:53:38;18.10;99.90
71142;DHT22;58808;59.366;17.970;2022-07-23T15:56:08;18.20;99.90
71142;DHT22;58808;59.366;17.970;2022-07-23T15:58:35;18.20;99.90
71142;DHT22;58808;59.366;17.970;2022-07-23T16:01:04;18.20;99.90